createdAt,value
2023-02-11T00:01:07.164Z,34.89
2023-02-11T00:03:34.441Z,34.99
2023-02-11T00:06:04.403Z,34.90
2023-02-11T00:08:31.985Z,34.96
2023-02-11T00:10:59.212Z,34.94
2023-02-11T00:13:26.848Z,34.96
2023-02-11T00:15:55.906Z,34.90
2023-02-11T00:18:23.436Z,34.93
2023-02-11T00:20:50.598Z,34.91
2023-02-11T00:23:17.781Z,34.98
2023-02-11T00:25:45.955Z,35.32
2023-02-11T00:28:13.126Z,34.99
2023-02-11T00:30:40.627Z,35.04
2023-02-11T00:33:09.158Z,35.07
2023-02-11T00:35:37.788Z,35.12
2023-02-11T00:38:04.876Z,35.11
2023-02-11T00:40:32.032Z,35.09
2023-02-11T00:42:59.290Z,34.96
2023-02-11T00:45:26.405Z,34.86
2023-02-11T00:47:53.505Z,34.99
2023-02-11T00:50:22.120Z,34.81
2023-02-11T00:52:49.498Z,34.93
2023-02-11T00:55:16.658Z,34.87
2023-02-11T00:57:43.850Z,34.89
2023-02-11T01:00:14.994Z,35.00
2023-02-11T01:02:42.082Z,34.91
2023-02-11T01:05:09.278Z,35.07
2023-02-11T01:07:37.804Z,34.88
2023-02-11T01:10:05.407Z,34.91
2023-02-11T01:12:35.254Z,35.07
2023-02-11T01:15:03.847Z,35.10
2023-02-11T01:17:30.966Z,35.13
2023-02-11T01:19:58.216Z,35.16
2023-02-11T01:22:25.328Z,35.07
2023-02-11T01:24:53.796Z,35.02
2023-02-11T01:27:20.918Z,35.21
2023-02-11T01:29:48.042Z,35.10
2023-02-11T01:32:15.157Z,35.21
2023-02-11T01:34:42.283Z,34.97
2023-02-11T01:37:09.406Z,35.01
2023-02-11T01:39:36.526Z,34.94
2023-02-11T01:42:05.778Z,34.95
2023-02-11T01:44:36.680Z,35.00
2023-02-11T01:47:04.130Z,34.98
2023-02-11T01:49:34.406Z,34.93
2023-02-11T01:52:05.696Z,35.16
2023-02-11T01:54:36.269Z,35.09
2023-02-11T01:57:06.371Z,35.09
2023-02-11T01:59:39.049Z,34.98
2023-02-11T02:02:10.142Z,34.91
2023-02-11T02:04:44.028Z,35.05
2023-02-11T02:07:17.142Z,35.11
2023-02-11T02:09:49.621Z,35.07
2023-02-11T02:12:18.101Z,35.14
2023-02-11T02:14:45.194Z,35.14
2023-02-11T02:17:24.964Z,35.07
2023-02-11T02:20:18.434Z,35.07
2023-02-11T02:23:28.489Z,35.04
2023-02-11T02:26:28.034Z,35.10
2023-02-11T02:29:23.449Z,34.98
2023-02-11T02:32:30.845Z,34.93
2023-02-11T02:35:09.436Z,35.14
2023-02-11T02:37:40.439Z,35.06
2023-02-11T02:40:12.694Z,35.07
2023-02-11T02:42:41.240Z,34.94
2023-02-11T02:45:10.819Z,35.22
2023-02-11T02:47:37.953Z,35.01
2023-02-11T02:50:08.156Z,35.13
2023-02-11T02:52:42.205Z,34.97
2023-02-11T02:55:17.572Z,35.07
2023-02-11T02:58:03.113Z,35.00
2023-02-11T03:00:36.951Z,35.15
2023-02-11T03:03:17.540Z,35.07
2023-02-11T03:05:53.371Z,35.13
2023-02-11T03:08:28.132Z,35.09
2023-02-11T03:10:56.561Z,35.11
2023-02-11T03:13:28.874Z,34.82
2023-02-11T03:15:58.413Z,34.98
2023-02-11T03:18:29.221Z,34.86
2023-02-11T03:21:00.470Z,34.67
2023-02-11T03:23:30.760Z,34.39
2023-02-11T03:26:02.857Z,33.89
2023-02-11T03:28:33.946Z,33.43
2023-02-11T03:31:09.682Z,33.06
2023-02-11T03:33:42.837Z,33.03
2023-02-11T03:36:14.856Z,33.11
2023-02-11T03:38:47.246Z,33.27
2023-02-11T03:41:17.588Z,33.19
2023-02-11T03:43:48.678Z,33.36
2023-02-11T03:46:19.502Z,33.61
2023-02-11T03:48:49.564Z,33.68
2023-02-11T03:51:20.638Z,33.70
2023-02-11T03:53:49.680Z,33.77
2023-02-11T03:56:21.179Z,33.64
2023-02-11T03:58:49.101Z,33.64
2023-02-11T04:01:16.345Z,33.60
2023-02-11T04:03:43.509Z,33.67
2023-02-11T04:06:10.709Z,33.71
2023-02-11T04:08:39.157Z,33.58
2023-02-11T04:11:06.281Z,33.72
2023-02-11T04:13:33.766Z,33.88
2023-02-11T04:16:00.904Z,33.90
2023-02-11T04:18:28.001Z,33.89
2023-02-11T04:20:55.280Z,33.93
2023-02-11T04:23:22.352Z,33.93
2023-02-11T04:25:51.069Z,34.08
2023-02-11T04:28:18.549Z,34.15
2023-02-11T04:30:45.693Z,34.41
2023-02-11T04:33:12.865Z,34.41
2023-02-11T04:35:40.115Z,34.41
2023-02-11T04:38:07.225Z,34.61
2023-02-11T04:40:34.352Z,34.71
2023-02-11T04:43:02.852Z,34.62
2023-02-11T04:45:29.961Z,34.74
2023-02-11T04:47:57.062Z,34.79
2023-02-11T04:50:24.384Z,34.57
2023-02-11T04:52:51.480Z,34.62
2023-02-11T04:55:18.824Z,34.77
2023-02-11T04:57:45.935Z,34.75
2023-02-11T05:00:15.968Z,34.80
2023-02-11T05:02:43.052Z,34.81
2023-02-11T05:05:10.169Z,34.88
2023-02-11T05:07:37.250Z,34.80
2023-02-11T05:10:04.587Z,34.77
2023-02-11T05:12:31.875Z,34.84
2023-02-11T05:14:58.983Z,34.84
2023-02-11T05:17:27.450Z,34.75
2023-02-11T05:19:54.990Z,34.90
2023-02-11T05:22:22.164Z,34.96
2023-02-11T05:24:50.186Z,34.72
2023-02-11T05:27:17.310Z,34.68
2023-02-11T05:29:44.409Z,34.65
2023-02-11T05:32:11.529Z,34.48
2023-02-11T05:34:39.998Z,34.57
2023-02-11T05:37:07.137Z,34.71
2023-02-11T05:39:34.249Z,34.45
2023-02-11T05:42:01.422Z,34.48
2023-02-11T05:44:28.511Z,34.24
2023-02-11T05:46:55.646Z,34.39
2023-02-11T05:49:22.817Z,34.34
2023-02-11T05:51:51.314Z,34.33
2023-02-11T05:54:18.453Z,34.43
2023-02-11T05:56:45.600Z,34.26
2023-02-11T05:59:14.548Z,34.33
2023-02-11T06:01:41.775Z,34.00
2023-02-11T06:04:08.902Z,34.17
2023-02-11T06:06:36.170Z,33.96
2023-02-11T06:09:04.945Z,31.77
2023-02-11T06:11:32.061Z,38.13
2023-02-11T06:13:59.135Z,35.17
2023-02-11T06:16:26.302Z,35.54
2023-02-11T06:18:53.430Z,30.29
2023-02-11T06:21:20.532Z,28.85
2023-02-11T06:23:47.758Z,28.93
2023-02-11T06:26:21.144Z,28.43
2023-02-11T06:28:48.497Z,28.61
2023-02-11T06:31:16.535Z,28.89
2023-02-11T06:33:43.985Z,29.48
2023-02-11T06:36:16.711Z,29.85
2023-02-11T06:38:43.949Z,30.03
2023-02-11T06:41:11.136Z,30.53
2023-02-11T06:43:40.290Z,30.96
2023-02-11T06:46:08.410Z,31.17
2023-02-11T06:48:36.409Z,31.37
2023-02-11T06:51:05.461Z,31.74
2023-02-11T06:53:35.309Z,32.16
2023-02-11T06:56:03.729Z,32.10
2023-02-11T06:58:30.824Z,32.66
2023-02-11T07:00:59.560Z,32.60
2023-02-11T07:03:26.656Z,32.78
2023-02-11T07:05:53.831Z,32.95
2023-02-11T07:08:20.996Z,32.99
2023-02-11T07:10:48.107Z,33.04
2023-02-11T07:13:15.210Z,33.16
2023-02-11T07:15:42.309Z,33.27
2023-02-11T07:18:13.023Z,33.32
2023-02-11T07:20:41.413Z,33.27
2023-02-11T07:23:08.554Z,33.37
2023-02-11T07:25:36.095Z,33.51
2023-02-11T07:28:03.639Z,33.52
2023-02-11T07:30:30.787Z,33.50
2023-02-11T07:32:57.892Z,33.53
2023-02-11T07:35:26.486Z,33.58
2023-02-11T07:37:53.665Z,33.80
2023-02-11T07:40:20.938Z,33.70
2023-02-11T07:42:48.026Z,33.78
2023-02-11T07:45:15.260Z,33.85
2023-02-11T07:47:42.371Z,33.62
2023-02-11T07:50:09.755Z,33.54
2023-02-11T07:52:38.226Z,33.65
2023-02-11T07:55:06.052Z,33.66
2023-02-11T07:57:33.098Z,33.53
2023-02-11T08:00:00.211Z,33.38
2023-02-11T08:02:27.621Z,33.19
2023-02-11T08:04:54.834Z,33.21
2023-02-11T08:07:22.053Z,33.27
2023-02-11T08:09:50.494Z,33.31
2023-02-11T08:12:17.585Z,33.38
2023-02-11T08:14:44.706Z,33.17
2023-02-11T08:17:11.813Z,33.17
2023-02-11T08:19:39.197Z,33.05
2023-02-11T08:22:06.574Z,33.01
2023-02-11T08:24:33.668Z,32.85
2023-02-11T08:27:02.123Z,32.87
2023-02-11T08:29:29.308Z,33.08
2023-02-11T08:31:56.478Z,33.28
2023-02-11T08:34:23.608Z,32.86
2023-02-11T08:36:50.994Z,32.84
2023-02-11T08:39:20.879Z,32.78
2023-02-11T08:41:50.101Z,33.04
2023-02-11T08:44:19.611Z,33.40
2023-02-11T08:46:47.439Z,33.66
2023-02-11T08:49:14.808Z,33.79
2023-02-11T08:51:42.652Z,34.05
2023-02-11T08:54:09.764Z,34.40
2023-02-11T08:56:37.984Z,34.41
2023-02-11T08:59:06.304Z,34.38
2023-02-11T09:01:35.135Z,34.49
2023-02-11T09:04:02.372Z,34.21
2023-02-11T09:06:29.906Z,34.41
2023-02-11T09:08:58.165Z,34.50
2023-02-11T09:11:29.292Z,34.35
2023-02-11T09:13:56.972Z,34.74
2023-02-11T09:16:26.115Z,34.53
2023-02-11T09:18:56.653Z,34.76
2023-02-11T09:21:23.828Z,34.69
2023-02-11T09:23:51.213Z,47.04
2023-02-11T09:26:20.707Z,41.88
2023-02-11T09:28:48.577Z,40.98
2023-02-11T09:31:17.967Z,39.66
2023-02-11T09:33:47.213Z,38.43
2023-02-11T09:36:17.732Z,38.72
2023-02-11T09:38:45.560Z,38.37
2023-02-11T09:41:35.360Z,37.93
2023-02-11T09:44:06.324Z,37.37
2023-02-11T09:46:39.489Z,37.34
2023-02-11T09:49:07.606Z,37.01
2023-02-11T09:51:43.781Z,36.76
2023-02-11T09:54:16.736Z,36.68
2023-02-11T09:56:43.846Z,36.38
2023-02-11T09:59:14.816Z,36.44
2023-02-11T10:01:47.256Z,36.45
2023-02-11T10:04:24.313Z,36.28
2023-02-11T10:06:55.645Z,35.98
2023-02-11T10:09:45.765Z,36.07
2023-02-11T10:12:29.844Z,35.94
2023-02-11T10:15:15.027Z,35.93
2023-02-11T10:17:51.728Z,35.99
2023-02-11T10:20:28.840Z,35.70
2023-02-11T10:22:59.825Z,35.74
2023-02-11T10:25:34.510Z,35.76
2023-02-11T10:28:10.152Z,35.75
2023-02-11T10:30:42.063Z,35.78
2023-02-11T10:33:19.936Z,35.56
2023-02-11T10:35:47.260Z,35.38
2023-02-11T10:38:15.701Z,35.24
2023-02-11T10:40:43.042Z,35.26
2023-02-11T10:43:13.535Z,35.33
2023-02-11T10:45:44.794Z,35.42
2023-02-11T10:48:38.332Z,35.42
2023-02-11T10:51:16.086Z,35.41
2023-02-11T10:53:45.398Z,35.33
2023-02-11T10:56:20.035Z,35.13
2023-02-11T10:58:55.978Z,35.23
2023-02-11T11:01:25.128Z,35.21
2023-02-11T11:03:52.989Z,35.34
2023-02-11T11:06:30.350Z,35.47
2023-02-11T11:08:59.069Z,35.32
2023-02-11T11:11:26.918Z,35.42
2023-02-11T11:13:57.192Z,35.47
2023-02-11T11:16:26.185Z,35.32
2023-02-11T11:19:13.866Z,42.28
2023-02-11T11:21:42.449Z,38.31
2023-02-11T11:24:18.403Z,37.71
2023-02-11T11:26:48.631Z,37.40
2023-02-11T11:29:18.959Z,37.28
2023-02-11T11:31:49.425Z,37.15
2023-02-11T11:34:26.875Z,37.18
2023-02-11T11:36:56.159Z,36.91
2023-02-11T11:39:27.613Z,36.96
2023-02-11T11:41:56.925Z,36.76
2023-02-11T11:44:28.303Z,36.82
2023-02-11T11:47:20.042Z,36.75
2023-02-11T11:49:55.436Z,36.56
2023-02-11T11:52:37.445Z,36.41
2023-02-11T11:55:15.986Z,36.43
2023-02-11T11:57:43.399Z,36.21
2023-02-11T12:00:19.015Z,36.27
2023-02-11T12:03:15.494Z,36.28
2023-02-11T12:05:52.109Z,36.17
2023-02-11T12:08:29.224Z,36.06
2023-02-11T12:11:12.170Z,36.00
2023-02-11T12:14:02.389Z,35.69
2023-02-11T12:16:43.453Z,35.95
2023-02-11T12:19:45.614Z,35.68
2023-02-11T12:22:26.435Z,35.73
2023-02-11T12:25:09.640Z,35.72
2023-02-11T12:27:49.550Z,35.62
2023-02-11T12:30:28.691Z,35.80
2023-02-11T12:33:04.582Z,35.56
2023-02-11T12:35:43.386Z,35.76
2023-02-11T12:38:22.795Z,35.74
2023-02-11T12:41:01.799Z,35.87
2023-02-11T12:43:36.954Z,35.96
2023-02-11T12:46:33.918Z,35.95
2023-02-11T12:49:33.489Z,35.92
2023-02-11T12:52:15.797Z,35.86
2023-02-11T12:54:48.673Z,35.98
2023-02-11T12:57:20.793Z,35.87
2023-02-11T12:59:57.224Z,35.82
2023-02-11T13:02:33.961Z,35.68
2023-02-11T13:05:08.255Z,35.81
2023-02-11T13:07:39.201Z,35.93
2023-02-11T13:10:22.382Z,35.66
2023-02-11T13:12:51.504Z,35.66
2023-02-11T13:15:19.932Z,35.62
2023-02-11T13:17:56.685Z,35.41
2023-02-11T13:20:39.049Z,35.06
2023-02-11T13:23:15.507Z,34.65
2023-02-11T13:25:50.442Z,34.33
2023-02-11T13:28:32.201Z,34.31
2023-02-11T13:31:01.223Z,34.47
2023-02-11T13:33:33.657Z,34.62
2023-02-11T13:36:21.727Z,34.59
2023-02-11T13:38:59.367Z,34.58
2023-02-11T13:41:33.284Z,34.64
2023-02-11T13:44:03.805Z,34.41
2023-02-11T13:46:49.996Z,34.54
2023-02-11T13:49:23.118Z,34.83
2023-02-11T13:51:51.473Z,35.10
2023-02-11T13:54:26.457Z,35.62
2023-02-11T13:57:33.749Z,35.26
2023-02-11T14:00:02.995Z,35.22
2023-02-11T14:02:33.839Z,35.22
2023-02-11T14:05:22.155Z,35.55
2023-02-11T14:08:14.873Z,35.50
2023-02-11T14:10:50.037Z,35.56
2023-02-11T14:13:23.969Z,35.71
2023-02-11T14:16:07.385Z,35.60
2023-02-11T14:19:03.801Z,35.89
2023-02-11T14:21:37.434Z,36.20
2023-02-11T14:24:47.212Z,36.23
2023-02-11T14:27:21.268Z,36.37
2023-02-11T14:30:06.758Z,36.28
2023-02-11T14:32:45.689Z,36.27
2023-02-11T14:35:23.494Z,36.13
2023-02-11T14:38:00.817Z,36.33
2023-02-11T14:40:31.690Z,36.22
2023-02-11T14:43:07.625Z,36.41
2023-02-11T14:45:36.915Z,36.16
2023-02-11T14:48:07.781Z,36.10
2023-02-11T14:50:41.695Z,36.25
2023-02-11T14:53:15.396Z,36.22
2023-02-11T14:55:45.500Z,36.13
2023-02-11T14:58:15.926Z,36.03
2023-02-11T15:00:52.240Z,36.19
2023-02-11T15:03:34.527Z,35.97
2023-02-11T15:06:06.023Z,36.04
2023-02-11T15:08:36.482Z,36.31
2023-02-11T15:11:10.682Z,36.59
2023-02-11T15:13:38.069Z,36.60
2023-02-11T15:16:07.929Z,36.48
2023-02-11T15:18:38.882Z,36.61
2023-02-11T15:21:08.310Z,36.46
2023-02-11T15:23:35.850Z,36.29
2023-02-11T15:26:03.426Z,36.24
2023-02-11T15:28:33.029Z,36.23
2023-02-11T15:31:02.468Z,36.22
2023-02-11T15:33:30.579Z,36.00
2023-02-11T15:35:58.759Z,36.06
2023-02-11T15:38:27.424Z,36.01
2023-02-11T15:40:57.103Z,35.90
2023-02-11T15:43:24.960Z,36.17
2023-02-11T15:45:59.886Z,36.28
2023-02-11T15:48:35.102Z,36.11
2023-02-11T15:51:08.166Z,36.46
2023-02-11T15:53:40.226Z,36.42
2023-02-11T15:56:15.708Z,36.33
2023-02-11T15:58:45.337Z,36.73
2023-02-11T16:01:12.663Z,36.83
2023-02-11T16:03:41.804Z,36.69
2023-02-11T16:06:20.056Z,36.69
2023-02-11T16:08:59.556Z,36.63
2023-02-11T16:11:29.155Z,36.49
2023-02-11T16:13:56.709Z,36.31
2023-02-11T16:16:27.472Z,36.31
2023-02-11T16:19:04.817Z,36.35
2023-02-11T16:21:35.742Z,36.45
2023-02-11T16:24:06.621Z,36.31
2023-02-11T16:26:37.665Z,36.27
2023-02-11T16:29:07.893Z,36.26
2023-02-11T16:31:37.292Z,36.17
2023-02-11T16:34:13.298Z,36.41
2023-02-11T16:36:40.458Z,36.46
2023-02-11T16:39:09.170Z,36.14
2023-02-11T16:41:36.458Z,35.77
2023-02-11T16:44:03.627Z,36.68
2023-02-11T16:46:31.696Z,37.05
2023-02-11T16:49:05.893Z,37.44
2023-02-11T16:51:32.803Z,48.19
2023-02-11T16:53:59.825Z,49.88
2023-02-11T16:56:29.002Z,55.23
2023-02-11T16:58:56.136Z,54.59
2023-02-11T17:01:23.433Z,70.65
2023-02-11T17:03:50.731Z,42.95
2023-02-11T17:06:17.830Z,41.82
2023-02-11T17:08:44.949Z,41.05
2023-02-11T17:11:12.062Z,40.84
2023-02-11T17:13:40.487Z,41.92
2023-02-11T17:16:15.917Z,41.33
2023-02-11T17:18:43.113Z,40.60
2023-02-11T17:21:10.238Z,40.03
2023-02-11T17:23:37.441Z,39.98
2023-02-11T17:26:05.345Z,40.08
2023-02-11T17:28:32.655Z,40.37
2023-02-11T17:31:01.380Z,40.70
2023-02-11T17:33:28.495Z,40.53
2023-02-11T17:35:55.662Z,40.73
2023-02-11T17:38:22.774Z,40.80
2023-02-11T17:40:57.338Z,41.16
2023-02-11T17:43:24.702Z,41.05
2023-02-11T17:45:52.169Z,41.32
2023-02-11T17:48:21.556Z,41.69
2023-02-11T17:50:48.780Z,41.70
2023-02-11T17:53:15.887Z,41.98
2023-02-11T17:55:43.037Z,42.16
2023-02-11T17:58:10.391Z,42.19
2023-02-11T18:00:37.494Z,42.05
2023-02-11T18:03:04.674Z,42.22
2023-02-11T18:05:35.976Z,42.40
2023-02-11T18:08:04.002Z,42.26
2023-02-11T18:10:31.615Z,42.56
2023-02-11T18:12:58.786Z,42.55
2023-02-11T18:15:25.882Z,42.44
2023-02-11T18:17:52.990Z,42.27
2023-02-11T18:20:20.157Z,42.16
2023-02-11T18:22:48.622Z,42.31
2023-02-11T18:25:16.665Z,42.36
2023-02-11T18:27:43.774Z,43.00
2023-02-11T18:30:15.606Z,43.51
2023-02-11T18:32:43.223Z,43.21
2023-02-11T18:35:12.654Z,43.11
2023-02-11T18:37:41.766Z,43.14
2023-02-11T18:40:12.178Z,43.01
2023-02-11T18:42:39.682Z,43.26
2023-02-11T18:45:07.856Z,42.88
2023-02-11T18:47:36.858Z,43.01
2023-02-11T18:50:04.084Z,42.91
2023-02-11T18:52:31.302Z,42.84
2023-02-11T18:54:58.428Z,42.90
2023-02-11T18:57:26.934Z,42.94
2023-02-11T18:59:54.192Z,43.23
2023-02-11T19:02:21.306Z,43.27
2023-02-11T19:04:48.506Z,43.22
2023-02-11T19:07:15.681Z,43.10
2023-02-11T19:09:43.120Z,43.15
2023-02-11T19:12:10.226Z,43.13
2023-02-11T19:14:38.694Z,42.91
2023-02-11T19:17:07.622Z,43.01
2023-02-11T19:19:35.925Z,42.97
2023-02-11T19:22:05.067Z,42.94
2023-02-11T19:24:32.755Z,43.10
2023-02-11T19:27:01.911Z,42.91
2023-02-11T19:29:30.307Z,42.91
2023-02-11T19:31:58.910Z,42.93
2023-02-11T19:34:26.062Z,42.96
2023-02-11T19:36:53.457Z,43.03
2023-02-11T19:39:20.923Z,43.07
2023-02-11T19:41:48.037Z,43.01
2023-02-11T19:44:15.146Z,42.97
2023-02-11T19:46:42.828Z,43.01
2023-02-11T19:49:14.144Z,43.18
2023-02-11T19:51:41.433Z,43.24
2023-02-11T19:54:08.554Z,43.33
2023-02-11T19:56:35.666Z,43.03
2023-02-11T19:59:03.466Z,43.00
2023-02-11T20:01:30.730Z,42.98
2023-02-11T20:03:57.882Z,43.02
2023-02-11T20:06:28.718Z,42.73
2023-02-11T20:08:58.593Z,42.94
2023-02-11T20:11:26.973Z,42.77
2023-02-11T20:13:54.205Z,42.71
2023-02-11T20:16:26.947Z,42.83
2023-02-11T20:19:01.060Z,43.11
2023-02-11T20:21:31.471Z,43.31
2023-02-11T20:23:59.619Z,43.23
2023-02-11T20:26:29.185Z,43.14
2023-02-11T20:28:57.704Z,43.13
2023-02-11T20:31:25.255Z,43.33
2023-02-11T20:33:52.416Z,43.05
2023-02-11T20:36:21.942Z,42.94
2023-02-11T20:38:51.348Z,42.45
2023-02-11T20:41:21.103Z,42.96
2023-02-11T20:43:50.720Z,43.28
2023-02-11T20:46:20.495Z,43.14
2023-02-11T20:48:47.779Z,43.01
2023-02-11T20:51:18.707Z,42.79
2023-02-11T20:53:47.923Z,42.92
2023-02-11T20:56:18.768Z,42.78
2023-02-11T20:58:46.088Z,42.76
2023-02-11T21:01:22.542Z,42.63
2023-02-11T21:03:52.120Z,42.58
2023-02-11T21:06:19.543Z,42.43
2023-02-11T21:08:47.308Z,42.45
2023-02-11T21:11:16.127Z,42.66
2023-02-11T21:13:43.552Z,42.57
2023-02-11T21:16:14.582Z,42.33
2023-02-11T21:18:42.117Z,42.36
2023-02-11T21:21:09.489Z,42.63
2023-02-11T21:23:36.666Z,42.75
2023-02-11T21:26:03.905Z,42.79
2023-02-11T21:28:32.572Z,43.01
2023-02-11T21:30:59.795Z,42.87
2023-02-11T21:33:28.156Z,42.85
2023-02-11T21:35:56.672Z,42.73
2023-02-11T21:38:24.366Z,42.75
2023-02-11T21:40:51.863Z,42.42
2023-02-11T21:43:19.210Z,42.37
2023-02-11T21:45:49.826Z,42.35
2023-02-11T21:48:18.120Z,42.22
2023-02-11T21:50:47.144Z,42.36
2023-02-11T21:53:15.068Z,42.28
2023-02-11T21:55:42.707Z,42.21
2023-02-11T21:58:12.556Z,42.36
2023-02-11T22:00:39.967Z,42.24
2023-02-11T22:03:08.469Z,42.24
2023-02-11T22:05:35.555Z,42.35
2023-02-11T22:08:02.674Z,42.23
2023-02-11T22:10:29.762Z,42.01
2023-02-11T22:12:56.879Z,41.97
2023-02-11T22:15:24.071Z,42.15
2023-02-11T22:17:51.169Z,42.13
2023-02-11T22:20:19.885Z,42.15
2023-02-11T22:22:46.985Z,42.13
2023-02-11T22:25:14.085Z,42.12
2023-02-11T22:27:41.238Z,42.06
2023-02-11T22:30:09.619Z,42.05
2023-02-11T22:32:36.756Z,42.03
2023-02-11T22:35:04.056Z,41.98
2023-02-11T22:37:32.553Z,42.02
2023-02-11T22:39:59.656Z,42.07
2023-02-11T22:42:26.793Z,42.00
2023-02-11T22:44:53.996Z,42.04
2023-02-11T22:47:21.145Z,41.99
2023-02-11T22:49:48.232Z,42.04
2023-02-11T22:52:15.365Z,42.12
2023-02-11T22:54:44.019Z,42.07
2023-02-11T22:57:11.111Z,42.06
2023-02-11T22:59:38.215Z,42.13
2023-02-11T23:02:05.402Z,42.08
2023-02-11T23:04:32.588Z,42.15
2023-02-11T23:06:59.694Z,42.10
2023-02-11T23:09:26.797Z,42.29
2023-02-11T23:11:55.374Z,41.80
2023-02-11T23:14:22.491Z,41.79
2023-02-11T23:16:50.287Z,41.75
2023-02-11T23:19:17.412Z,41.62
2023-02-11T23:21:44.531Z,41.56
2023-02-11T23:24:13.615Z,41.67
2023-02-11T23:26:41.661Z,41.63
2023-02-11T23:29:10.723Z,41.67
2023-02-11T23:31:39.634Z,41.60
2023-02-11T23:34:08.054Z,41.55
2023-02-11T23:36:36.229Z,41.60
2023-02-11T23:39:04.401Z,41.51
2023-02-11T23:41:31.654Z,41.53
2023-02-11T23:43:58.890Z,41.65
2023-02-11T23:46:27.824Z,41.69
2023-02-11T23:48:55.174Z,41.70
2023-02-11T23:51:22.739Z,41.56
2023-02-11T23:53:50.361Z,41.77
2023-02-11T23:56:20.771Z,41.62
2023-02-11T23:58:49.386Z,41.61
